Ybor City, Florida
Current Conditions -  °F | °C
As of 3:15 AM on Monday 24 Nov 2014 (Local Time) from KVDF Reporting Station
Overcast Overcast  
Wind Chill: 75°   Ceiling: 500
Heat Index: 75°   Visibility: 7mi
Dew Point: 72°   Wind: 6mph
Humidity: 89%   Direction: 190°S
Pressure: 29.93"   Gusts: NA
Location:  28.1184°N, 82.4713°W
Report Text: KVDF 240815Z AUTO 19005KT 7SM OVC005 24/22 A2993 RMK AO2
Loading
Personal Weather Stations






























Interactive Weather Map New forecast layout! Learn more

10-Day Weather Forecast

Advertisements
Track Severe Weather on mobile